createdAt,value
2019-02-22T00:02:15.249Z,31.30
2019-02-22T00:04:44.699Z,33.27
2019-02-22T00:07:14.486Z,29.93
2019-02-22T00:09:49.501Z,33.60
2019-02-22T00:12:15.533Z,32.97
2019-02-22T00:14:45.162Z,34.57
2019-02-22T00:17:14.822Z,31.80
2019-02-22T00:19:44.488Z,35.87
2019-02-22T00:22:14.226Z,35.13
2019-02-22T00:24:43.901Z,29.47
2019-02-22T00:27:13.540Z,29.70
2019-02-22T00:29:43.493Z,31.83
2019-02-22T00:32:13.159Z,31.33
2019-02-22T00:34:42.854Z,30.90
2019-02-22T00:37:12.547Z,33.53
2019-02-22T00:39:42.153Z,33.03
2019-02-22T00:42:11.808Z,32.67
2019-02-22T00:44:41.370Z,34.20
2019-02-22T00:47:10.916Z,34.47
2019-02-22T00:49:40.563Z,36.93
2019-02-22T00:52:10.407Z,37.73
2019-02-22T00:54:40.014Z,37.07
2019-02-22T00:57:09.596Z,38.90
2019-02-22T00:59:39.483Z,33.80
2019-02-22T01:02:09.076Z,36.43
2019-02-22T01:04:38.771Z,37.10
2019-02-22T01:07:08.346Z,37.60
2019-02-22T01:09:37.880Z,33.43
2019-02-22T01:12:07.439Z,31.83
2019-02-22T01:14:37.200Z,28.13
2019-02-22T01:17:06.803Z,28.77
2019-02-22T01:19:36.444Z,23.20
2019-02-22T01:22:07.802Z,22.57
2019-02-22T01:24:37.441Z,23.37
2019-02-22T01:27:07.240Z,21.07
2019-02-22T01:29:36.860Z,20.00
2019-02-22T01:32:06.657Z,19.47
2019-02-22T01:34:36.418Z,22.63
2019-02-22T01:37:05.958Z,20.63
2019-02-22T01:39:35.675Z,20.73
2019-02-22T01:42:05.483Z,18.83
2019-02-22T01:44:35.070Z,21.50
2019-02-22T01:47:04.711Z,23.00
2019-02-22T01:49:34.388Z,23.13
2019-02-22T01:52:04.248Z,24.33
2019-02-22T01:54:33.878Z,22.63
2019-02-22T01:57:03.341Z,25.03
2019-02-22T01:59:32.968Z,25.43
2019-02-22T02:02:02.653Z,28.03
2019-02-22T02:04:33.727Z,29.00
2019-02-22T02:07:03.530Z,28.90
2019-02-22T02:09:33.261Z,29.37
2019-02-22T02:12:02.980Z,26.77
2019-02-22T02:14:32.602Z,28.47
2019-02-22T02:17:03.892Z,27.80
2019-02-22T02:19:33.590Z,27.20
2019-02-22T02:22:03.176Z,25.70
2019-02-22T02:24:32.963Z,25.77
2019-02-22T02:27:02.680Z,25.47
2019-02-22T02:29:32.489Z,25.47
2019-02-22T02:32:02.190Z,24.83
2019-02-22T02:34:31.820Z,24.83
2019-02-22T02:37:01.681Z,26.63
2019-02-22T02:39:31.319Z,25.27
2019-02-22T02:42:03.373Z,26.33
2019-02-22T02:44:33.139Z,25.57
2019-02-22T02:47:02.756Z,25.67
2019-02-22T02:49:32.387Z,23.83
2019-02-22T02:52:02.100Z,24.43
2019-02-22T02:54:31.696Z,22.90
2019-02-22T02:57:01.207Z,24.63
2019-02-22T02:59:30.881Z,25.07
2019-02-22T03:02:01.564Z,25.93
2019-02-22T03:04:31.274Z,23.93
2019-02-22T03:07:05.950Z,23.80
2019-02-22T03:09:35.655Z,25.93
2019-02-22T03:12:05.333Z,24.57
2019-02-22T03:14:35.161Z,24.90
2019-02-22T03:17:04.848Z,25.13
2019-02-22T03:19:34.512Z,24.50
2019-02-22T03:22:04.044Z,24.30
2019-02-22T03:24:33.738Z,26.20
2019-02-22T03:27:03.408Z,26.40
2019-02-22T03:29:33.119Z,25.50
2019-02-22T03:32:02.704Z,27.53
2019-02-22T03:34:32.464Z,25.63
2019-02-22T03:37:02.195Z,26.80
2019-02-22T03:39:31.770Z,24.73
2019-02-22T03:42:01.542Z,24.63
2019-02-22T03:44:31.173Z,25.90
2019-02-22T03:47:00.853Z,26.40
2019-02-22T03:49:30.594Z,30.10
2019-02-22T03:52:01.992Z,25.67
2019-02-22T03:54:31.588Z,23.93
2019-02-22T03:57:01.351Z,24.33
2019-02-22T03:59:31.203Z,25.93
2019-02-22T04:02:00.846Z,25.13
2019-02-22T04:04:30.623Z,47.43
2019-02-22T04:07:00.293Z,24.47
2019-02-22T04:09:29.837Z,29.07
2019-02-22T04:11:59.515Z,21.87
2019-02-22T04:14:29.124Z,24.07
2019-02-22T04:16:58.729Z,24.60
2019-02-22T04:19:28.478Z,26.03
2019-02-22T04:21:58.100Z,24.20
2019-02-22T04:24:27.884Z,23.17
2019-02-22T04:26:57.624Z,34.80
2019-02-22T04:29:27.447Z,33.53
2019-02-22T04:31:57.070Z,21.17
2019-02-22T04:34:26.752Z,60.77
2019-02-22T04:36:56.461Z,31.07
2019-02-22T04:39:26.090Z,23.07
2019-02-22T04:41:58.327Z,24.23
2019-02-22T04:44:27.827Z,22.03
2019-02-22T04:46:57.516Z,21.50
2019-02-22T04:49:27.148Z,20.50
2019-02-22T04:51:56.716Z,21.23
2019-02-22T04:54:26.521Z,23.17
2019-02-22T04:56:56.108Z,22.73
2019-02-22T04:59:25.743Z,21.37
2019-02-22T05:01:55.432Z,22.27
2019-02-22T05:04:24.966Z,21.80
2019-02-22T05:06:54.663Z,22.97
2019-02-22T05:09:24.346Z,24.67
2019-02-22T05:11:54.178Z,22.43
2019-02-22T05:14:23.707Z,25.57
2019-02-22T05:16:53.508Z,25.47
2019-02-22T05:19:23.257Z,27.67
2019-02-22T05:21:52.992Z,30.80
2019-02-22T05:24:22.545Z,29.30
2019-02-22T05:26:52.296Z,25.13
2019-02-22T05:29:21.825Z,28.83
2019-02-22T05:31:51.702Z,46.70
2019-02-22T05:34:21.316Z,34.37
2019-02-22T05:36:50.932Z,31.47
2019-02-22T05:39:20.518Z,25.60
2019-02-22T05:41:50.288Z,24.50
2019-02-22T05:44:19.717Z,25.20
2019-02-22T05:46:59.959Z,22.53
2019-02-22T05:49:22.694Z,21.77
2019-02-22T05:51:52.497Z,21.13
2019-02-22T05:54:22.310Z,21.73
2019-02-22T05:56:54.708Z,19.97
2019-02-22T05:59:23.084Z,22.27
2019-02-22T06:01:52.706Z,24.43
2019-02-22T06:04:22.372Z,22.13
2019-02-22T06:06:51.912Z,21.20
2019-02-22T06:09:21.576Z,20.57
2019-02-22T06:11:51.299Z,20.47
2019-02-22T06:14:20.899Z,19.10
2019-02-22T06:16:51.883Z,21.50
2019-02-22T06:19:21.510Z,19.07
2019-02-22T06:21:51.135Z,17.87
2019-02-22T06:24:20.772Z,20.13
2019-02-22T06:26:50.356Z,20.60
2019-02-22T06:29:19.931Z,18.10
2019-02-22T06:31:49.594Z,16.73
2019-02-22T06:34:19.481Z,17.80
2019-02-22T06:37:00.774Z,17.90
2019-02-22T06:39:20.570Z,19.33
2019-02-22T06:41:50.295Z,17.10
2019-02-22T06:44:19.887Z,16.97
2019-02-22T06:46:49.478Z,17.43
2019-02-22T06:49:19.052Z,17.93
2019-02-22T06:51:48.701Z,17.57
2019-02-22T06:54:18.561Z,17.87
2019-02-22T06:56:47.983Z,18.30
2019-02-22T06:59:17.806Z,16.57
2019-02-22T07:01:50.041Z,16.47
2019-02-22T07:04:18.951Z,17.83
2019-02-22T07:06:48.583Z,17.37
2019-02-22T07:09:18.317Z,17.73
2019-02-22T07:11:54.554Z,20.67
2019-02-22T07:14:24.190Z,18.33
2019-02-22T07:16:53.994Z,18.23
2019-02-22T07:19:23.879Z,17.97
2019-02-22T07:21:53.593Z,18.27
2019-02-22T07:24:23.234Z,19.77
2019-02-22T07:26:52.733Z,21.57
2019-02-22T07:29:22.402Z,18.73
2019-02-22T07:31:52.062Z,18.07
2019-02-22T07:34:21.941Z,18.67
2019-02-22T07:36:51.548Z,18.07
2019-02-22T07:39:27.885Z,18.50
2019-02-22T07:41:52.687Z,18.90
2019-02-22T07:44:22.419Z,21.70
2019-02-22T07:46:52.050Z,22.40
2019-02-22T07:49:28.565Z,24.80
2019-02-22T07:51:58.158Z,25.30
2019-02-22T07:54:27.785Z,25.20
2019-02-22T07:56:57.415Z,25.40
2019-02-22T07:59:27.104Z,26.73
2019-02-22T08:01:56.858Z,25.77
2019-02-22T08:04:26.791Z,26.03
2019-02-22T08:06:56.459Z,25.67
2019-02-22T08:09:26.056Z,23.83
2019-02-22T08:11:55.866Z,24.83
2019-02-22T08:14:25.534Z,25.13
2019-02-22T08:16:56.477Z,23.67
2019-02-22T08:19:27.745Z,24.70
2019-02-22T08:21:57.363Z,23.67
2019-02-22T08:24:28.382Z,25.67
2019-02-22T08:26:58.100Z,27.30
2019-02-22T08:29:27.992Z,29.07
2019-02-22T08:31:57.820Z,26.67
2019-02-22T08:34:27.616Z,25.47
2019-02-22T08:36:57.376Z,25.00
2019-02-22T08:39:27.105Z,25.03
2019-02-22T08:41:57.802Z,24.53
2019-02-22T08:44:27.562Z,26.60
2019-02-22T08:46:59.600Z,25.50
2019-02-22T08:49:29.084Z,24.57
2019-02-22T08:51:58.788Z,25.83
2019-02-22T08:54:28.438Z,26.53
2019-02-22T08:56:58.057Z,26.00
2019-02-22T09:01:51.988Z,25.97
2019-02-22T09:04:21.614Z,26.00
2019-02-22T09:06:52.468Z,25.30
2019-02-22T09:09:22.128Z,27.63
2019-02-22T09:11:51.763Z,27.93
2019-02-22T09:14:21.594Z,30.07
2019-02-22T09:16:51.174Z,29.73
2019-02-22T09:19:21.005Z,28.97
2019-02-22T09:21:50.845Z,30.07
2019-02-22T09:24:20.543Z,28.77
2019-02-22T09:26:50.143Z,29.00
2019-02-22T09:29:19.881Z,31.00
2019-02-22T09:31:49.547Z,31.20
2019-02-22T09:34:19.204Z,29.87
2019-02-22T09:36:48.936Z,29.53
2019-02-22T09:39:18.827Z,29.87
2019-02-22T09:41:48.458Z,27.50
2019-02-22T09:44:18.064Z,28.90
2019-02-22T09:46:48.062Z,27.77
2019-02-22T09:49:17.676Z,28.57
2019-02-22T09:51:47.167Z,27.40
2019-02-22T09:54:16.760Z,26.53
2019-02-22T09:56:46.418Z,24.10
2019-02-22T09:59:15.977Z,26.43
2019-02-22T10:01:45.832Z,24.77
2019-02-22T10:04:15.435Z,25.93
2019-02-22T10:06:45.252Z,24.97
2019-02-22T10:09:14.894Z,25.43
2019-02-22T10:11:44.357Z,25.07
2019-02-22T10:14:14.126Z,25.97
2019-02-22T10:16:43.959Z,25.23
2019-02-22T10:19:13.933Z,25.63
2019-02-22T10:21:43.722Z,23.07
2019-02-22T10:24:13.381Z,21.83
2019-02-22T10:26:42.959Z,22.47
2019-02-22T10:29:12.737Z,20.80
2019-02-22T10:31:42.373Z,20.60
2019-02-22T10:34:11.936Z,13.53
2019-02-22T10:36:45.171Z,15.77
2019-02-22T10:39:13.083Z,15.73
2019-02-22T10:41:42.766Z,15.10
2019-02-22T10:44:17.799Z,15.47
2019-02-22T10:46:43.706Z,16.50
2019-02-22T10:49:14.744Z,15.90
2019-02-22T10:51:44.412Z,14.20
2019-02-22T10:54:14.155Z,12.53
2019-02-22T10:56:44.032Z,12.70
2019-02-22T10:59:15.437Z,13.67
2019-02-22T11:01:45.190Z,12.63
2019-02-22T11:04:14.779Z,11.47
2019-02-22T11:06:46.838Z,12.70
2019-02-22T11:09:18.030Z,12.67
2019-02-22T11:11:48.805Z,12.37
2019-02-22T11:14:28.448Z,13.03
2019-02-22T11:16:49.628Z,13.27
2019-02-22T11:19:19.260Z,14.10
2019-02-22T11:21:48.876Z,14.00
2019-02-22T11:24:19.987Z,14.17
2019-02-22T11:26:49.767Z,15.40
2019-02-22T11:29:19.290Z,17.27
2019-02-22T11:31:48.881Z,16.07
2019-02-22T11:34:18.496Z,15.80
2019-02-22T11:36:48.087Z,17.17
2019-02-22T11:39:17.883Z,17.90
2019-02-22T11:41:48.965Z,17.67
2019-02-22T11:44:20.144Z,17.03
2019-02-22T11:46:51.035Z,16.83
2019-02-22T11:49:21.305Z,16.13
2019-02-22T11:51:51.451Z,15.30
2019-02-22T11:54:21.808Z,14.00
2019-02-22T11:56:51.562Z,15.33
2019-02-22T11:59:21.780Z,15.13
2019-02-22T12:01:52.273Z,15.03
2019-02-22T12:04:22.152Z,15.10
2019-02-22T12:06:53.588Z,15.70
2019-02-22T12:09:23.268Z,15.10
2019-02-22T12:11:54.238Z,13.90
2019-02-22T12:14:24.563Z,14.00
2019-02-22T12:16:54.633Z,13.30
2019-02-22T12:19:24.952Z,12.43
2019-02-22T12:21:56.546Z,12.90
2019-02-22T12:24:27.069Z,12.17
2019-02-22T12:26:57.879Z,11.83
2019-02-22T12:29:28.032Z,13.00
2019-02-22T12:31:59.451Z,11.60
2019-02-22T12:34:30.805Z,11.70
2019-02-22T12:37:01.657Z,10.43
2019-02-22T12:39:32.254Z,10.50
2019-02-22T12:42:02.879Z,10.33
2019-02-22T12:44:33.279Z,9.57
2019-02-22T12:47:02.883Z,9.00
2019-02-22T12:49:33.933Z,8.33
2019-02-22T12:52:04.157Z,8.03
2019-02-22T12:54:35.739Z,6.10
2019-02-22T12:57:06.295Z,6.17
2019-02-22T12:59:37.087Z,5.77
2019-02-22T13:02:08.211Z,5.63
2019-02-22T13:04:37.789Z,5.60
2019-02-22T13:07:09.804Z,4.90
2019-02-22T13:09:41.161Z,4.93
2019-02-22T13:12:14.243Z,5.30
2019-02-22T13:14:44.369Z,4.97
2019-02-22T13:17:14.680Z,6.47
2019-02-22T13:19:44.855Z,6.10
2019-02-22T13:22:15.531Z,5.63
2019-02-22T13:24:45.195Z,5.87
2019-02-22T13:27:15.540Z,6.40
2019-02-22T13:29:45.846Z,5.97
2019-02-22T13:32:15.904Z,6.30
2019-02-22T13:34:46.159Z,6.97
2019-02-22T13:37:16.262Z,7.70
2019-02-22T13:39:48.684Z,7.20
2019-02-22T13:42:19.200Z,8.10
2019-02-22T13:44:49.338Z,7.90
2019-02-22T13:47:19.399Z,8.50
2019-02-22T13:49:49.791Z,8.70
2019-02-22T13:52:20.323Z,8.17
2019-02-22T13:54:52.788Z,8.93
2019-02-22T13:57:23.173Z,7.93
2019-02-22T13:59:52.860Z,8.70
2019-02-22T14:02:25.544Z,8.00
2019-02-22T14:04:55.113Z,8.10
2019-02-22T14:07:24.953Z,8.37
2019-02-22T14:09:54.618Z,35.00
2019-02-22T14:12:24.334Z,10.30
2019-02-22T14:14:53.970Z,9.33
2019-02-22T14:17:23.708Z,9.63
2019-02-22T14:19:53.219Z,9.83
2019-02-22T14:22:22.948Z,8.50
2019-02-22T14:24:52.649Z,8.90
2019-02-22T14:27:22.307Z,9.27
2019-02-22T14:29:51.940Z,9.30
2019-02-22T14:32:21.530Z,9.40
2019-02-22T14:34:51.134Z,10.20
2019-02-22T14:37:21.016Z,10.00
2019-02-22T14:40:01.053Z,11.97
2019-02-22T14:42:22.296Z,12.97
2019-02-22T14:44:52.123Z,12.07
2019-02-22T14:47:21.943Z,13.77
2019-02-22T14:49:51.687Z,14.90
2019-02-22T14:52:21.303Z,21.53
2019-02-22T14:54:50.950Z,17.37
2019-02-22T14:57:20.554Z,14.60
2019-02-22T14:59:51.771Z,13.80
2019-02-22T15:02:21.400Z,14.23
2019-02-22T15:04:51.141Z,13.77
2019-02-22T15:07:20.789Z,18.60
2019-02-22T15:09:50.383Z,14.67
2019-02-22T15:12:20.160Z,13.43
2019-02-22T15:14:49.787Z,12.07
2019-02-22T15:17:31.493Z,13.40
2019-02-22T15:20:01.061Z,12.77
2019-02-22T15:22:30.795Z,13.50
2019-02-22T15:25:00.357Z,12.23
2019-02-22T15:27:30.075Z,13.97
2019-02-22T15:30:00.868Z,12.43
2019-02-22T15:32:30.594Z,14.03
2019-02-22T15:35:00.329Z,12.43
2019-02-22T15:37:29.871Z,10.93
2019-02-22T15:40:00.699Z,10.83
2019-02-22T15:42:30.349Z,10.33
2019-02-22T15:45:01.786Z,10.33
2019-02-22T15:47:31.472Z,10.40
2019-02-22T15:50:02.097Z,10.13
2019-02-22T15:52:31.847Z,9.57
2019-02-22T15:55:01.591Z,9.90
2019-02-22T15:57:31.329Z,10.20
2019-02-22T16:00:01.213Z,9.97
2019-02-22T16:02:30.995Z,8.77
2019-02-22T16:05:11.688Z,8.77
2019-02-22T16:07:44.603Z,7.37
2019-02-22T16:10:15.974Z,6.70
2019-02-22T16:12:45.888Z,6.33
2019-02-22T16:15:16.798Z,7.13
2019-02-22T16:17:46.376Z,6.50
2019-02-22T16:20:16.143Z,6.50
2019-02-22T16:22:45.772Z,6.30
2019-02-22T16:25:19.731Z,5.80
2019-02-22T16:27:47.095Z,5.73
2019-02-22T16:30:18.837Z,6.30
2019-02-22T16:32:50.104Z,5.67
2019-02-22T16:35:19.729Z,5.97
2019-02-22T16:37:49.359Z,6.00
2019-02-22T16:40:21.649Z,5.50
2019-02-22T16:42:51.358Z,5.57
2019-02-22T16:45:21.092Z,5.13
2019-02-22T16:47:53.620Z,5.60
2019-02-22T16:50:25.474Z,5.53
2019-02-22T16:52:55.232Z,5.40
2019-02-22T16:55:25.157Z,5.57
2019-02-22T16:57:54.939Z,5.00
2019-02-22T17:00:24.893Z,5.17
2019-02-22T17:02:54.530Z,5.10
2019-02-22T17:05:24.310Z,8.60
2019-02-22T17:07:53.837Z,5.73
2019-02-22T17:10:23.382Z,5.57
2019-02-22T17:12:53.159Z,5.53
2019-02-22T17:15:24.461Z,5.20
2019-02-22T17:17:54.163Z,4.70
2019-02-22T17:20:25.730Z,5.53
2019-02-22T17:22:55.389Z,5.00
2019-02-22T17:25:25.018Z,5.20
2019-02-22T17:27:54.760Z,5.20
2019-02-22T17:30:24.569Z,4.77
2019-02-22T17:32:54.095Z,5.00
2019-02-22T17:35:23.874Z,5.40
2019-02-22T17:37:53.645Z,4.70
2019-02-22T17:40:23.275Z,5.03
2019-02-22T17:42:54.080Z,5.73
2019-02-22T17:45:23.793Z,6.20
2019-02-22T17:47:53.544Z,6.33
2019-02-22T17:50:23.307Z,6.60
2019-02-22T17:52:52.900Z,7.07
2019-02-22T17:55:22.571Z,6.17
2019-02-22T17:57:53.358Z,7.07
2019-02-22T18:00:23.595Z,7.10
2019-02-22T18:02:54.411Z,6.80
2019-02-22T18:05:25.046Z,7.30
2019-02-22T18:07:54.785Z,7.47
2019-02-22T18:10:24.496Z,7.87
2019-02-22T18:12:54.400Z,7.63
2019-02-22T18:15:26.233Z,7.60
2019-02-22T18:17:58.093Z,7.93
2019-02-22T18:20:27.937Z,7.80
2019-02-22T18:22:57.492Z,8.07
2019-02-22T18:25:27.294Z,10.17
2019-02-22T18:27:57.196Z,9.30
2019-02-22T18:30:26.785Z,10.57
2019-02-22T18:32:56.461Z,10.87
2019-02-22T18:35:26.186Z,9.70
2019-02-22T18:37:56.099Z,9.80
2019-02-22T18:40:26.006Z,11.17
2019-02-22T18:42:55.780Z,10.17
2019-02-22T18:45:25.624Z,12.20
2019-02-22T18:47:55.399Z,11.23
2019-02-22T18:50:25.003Z,12.07
2019-02-22T18:52:54.623Z,12.00
2019-02-22T18:55:24.378Z,11.03
2019-02-22T18:57:54.140Z,11.37
2019-02-22T19:00:24.042Z,11.70
2019-02-22T19:02:53.647Z,11.97
2019-02-22T19:05:23.308Z,12.27
2019-02-22T19:07:52.810Z,12.30
2019-02-22T19:10:22.334Z,12.60
2019-02-22T19:12:53.447Z,12.50
2019-02-22T19:15:23.192Z,11.93
2019-02-22T19:17:53.021Z,13.57
2019-02-22T19:20:24.459Z,13.23
2019-02-22T19:22:54.039Z,12.20
2019-02-22T19:25:23.766Z,11.80
2019-02-22T19:27:53.443Z,13.20
2019-02-22T19:30:23.226Z,13.33
2019-02-22T19:32:52.846Z,11.80
2019-02-22T19:35:22.633Z,12.13
2019-02-22T19:37:52.431Z,11.93
2019-02-22T19:40:22.363Z,12.40
2019-02-22T19:42:52.167Z,12.87
2019-02-22T19:45:21.888Z,12.23
2019-02-22T19:47:51.592Z,13.33
2019-02-22T19:50:21.314Z,15.90
2019-02-22T19:52:51.022Z,16.30
2019-02-22T19:55:20.926Z,15.53
2019-02-22T19:57:50.603Z,16.40
2019-02-22T20:00:20.495Z,17.20
2019-02-22T20:02:50.164Z,16.97
2019-02-22T20:05:19.778Z,16.57
2019-02-22T20:07:49.424Z,16.13
2019-02-22T20:10:19.351Z,16.73
2019-02-22T20:12:49.211Z,15.67
2019-02-22T20:15:19.100Z,16.30
2019-02-22T20:17:54.316Z,16.43
2019-02-22T20:20:20.020Z,15.47
2019-02-22T20:22:49.661Z,16.00
2019-02-22T20:25:19.227Z,14.97
2019-02-22T20:27:48.860Z,14.57
2019-02-22T20:30:18.985Z,14.40
2019-02-22T20:32:48.601Z,14.97
2019-02-22T20:35:19.830Z,14.13
2019-02-22T20:37:53.025Z,14.13
2019-02-22T20:40:21.039Z,14.40
2019-02-22T20:42:53.679Z,13.77
2019-02-22T20:45:23.356Z,13.10
2019-02-22T20:48:04.244Z,11.97
2019-02-22T20:50:24.481Z,13.30
2019-02-22T20:52:54.303Z,11.57
2019-02-22T20:55:24.024Z,11.27
2019-02-22T20:57:53.919Z,10.73
2019-02-22T21:00:23.706Z,11.43
2019-02-22T21:02:53.323Z,9.80
2019-02-22T21:05:23.118Z,9.27
2019-02-22T21:07:52.622Z,9.87
2019-02-22T21:10:22.919Z,9.93
2019-02-22T21:12:56.132Z,10.80
2019-02-22T21:15:27.098Z,9.57
2019-02-22T21:17:56.697Z,9.77
2019-02-22T21:20:26.365Z,11.47
2019-02-22T21:22:56.025Z,10.30
2019-02-22T21:25:25.881Z,8.40
2019-02-22T21:27:55.434Z,9.00
2019-02-22T21:30:25.079Z,9.53
2019-02-22T21:32:54.646Z,8.97
2019-02-22T21:35:24.210Z,8.73
2019-02-22T21:37:53.847Z,8.83
2019-02-22T21:40:23.568Z,9.20
2019-02-22T21:42:53.316Z,8.50
2019-02-22T21:45:25.027Z,8.80
2019-02-22T21:47:55.782Z,8.40
2019-02-22T21:50:25.439Z,8.93
2019-02-22T21:52:54.998Z,9.97
2019-02-22T21:55:24.580Z,9.60
2019-02-22T21:57:54.624Z,9.17
2019-02-22T22:00:24.472Z,10.00
2019-02-22T22:02:54.431Z,9.20
2019-02-22T22:05:23.932Z,10.17
2019-02-22T22:07:53.635Z,9.47
2019-02-22T22:10:23.213Z,10.40
2019-02-22T22:12:52.880Z,8.53
2019-02-22T22:15:22.630Z,8.30
2019-02-22T22:17:54.508Z,9.57
2019-02-22T22:20:24.199Z,9.50
2019-02-22T22:22:53.739Z,8.73
2019-02-22T22:25:24.512Z,9.37
2019-02-22T22:27:54.283Z,12.43
2019-02-22T22:30:23.941Z,10.43
2019-02-22T22:32:53.808Z,7.67
2019-02-22T22:35:23.748Z,5.00
2019-02-22T22:37:53.405Z,2.80
2019-02-22T22:40:23.011Z,2.70
2019-02-22T22:42:52.688Z,2.33
2019-02-22T22:45:22.399Z,2.40
2019-02-22T22:47:52.083Z,2.40
2019-02-22T22:50:21.877Z,2.83
2019-02-22T22:52:51.654Z,2.83
2019-02-22T22:55:21.391Z,2.90
2019-02-22T22:57:51.141Z,2.10
2019-02-22T23:00:59.005Z,1.57
2019-02-22T23:03:28.823Z,1.77
2019-02-22T23:05:58.701Z,1.90
2019-02-22T23:08:28.425Z,2.37
2019-02-22T23:10:58.120Z,2.50
2019-02-22T23:13:27.978Z,2.50
2019-02-22T23:15:58.610Z,2.30
2019-02-22T23:18:28.239Z,2.57
2019-02-22T23:20:58.008Z,1.90
2019-02-22T23:23:27.516Z,2.57
2019-02-22T23:25:57.132Z,2.10
2019-02-22T23:28:28.198Z,1.90
2019-02-22T23:30:57.908Z,2.00
2019-02-22T23:33:27.500Z,2.43
2019-02-22T23:35:57.313Z,1.73
2019-02-22T23:38:27.024Z,2.00
2019-02-22T23:40:56.780Z,2.17
2019-02-22T23:43:26.606Z,2.37
2019-02-22T23:45:58.108Z,2.00
2019-02-22T23:48:27.846Z,2.50
2019-02-22T23:50:57.590Z,2.03
2019-02-22T23:53:27.357Z,2.50
2019-02-22T23:55:58.109Z,2.43
2019-02-22T23:58:27.680Z,2.63
